createdAt,value
2022-12-17T00:01:56.013Z,100971.09
2022-12-17T00:04:41.931Z,100978.28
2022-12-17T00:07:27.617Z,100986.88
2022-12-17T00:10:16.547Z,100987.06
2022-12-17T00:13:01.867Z,100989.59
2022-12-17T00:15:48.918Z,101002.31
2022-12-17T00:18:34.113Z,101004.13
2022-12-17T00:21:22.496Z,100979.97
2022-12-17T00:24:11.236Z,101002.94
2022-12-17T00:26:56.494Z,100999.59
2022-12-17T00:29:41.821Z,100995.00
2022-12-17T00:32:28.956Z,101003.94
2022-12-17T00:35:14.303Z,101008.38
2022-12-17T00:37:59.454Z,101011.81
2022-12-17T00:40:44.826Z,101015.56
2022-12-17T00:43:31.972Z,101024.84
2022-12-17T00:46:18.109Z,101026.16
2022-12-17T00:49:05.018Z,101015.91
2022-12-17T00:51:50.292Z,101026.81
2022-12-17T00:54:35.887Z,101024.75
2022-12-17T00:57:21.062Z,101022.19
2022-12-17T01:00:06.425Z,101024.03
2022-12-17T01:02:52.297Z,101033.47
2022-12-17T01:05:39.263Z,101020.97
2022-12-17T01:08:29.063Z,101040.13
2022-12-17T01:11:17.923Z,101035.97
2022-12-17T01:14:03.622Z,101043.06
2022-12-17T01:16:49.357Z,101039.56
2022-12-17T01:19:34.671Z,101052.03
2022-12-17T01:22:21.408Z,101054.00
2022-12-17T01:25:08.070Z,101055.13
2022-12-17T01:27:53.683Z,101069.38
2022-12-17T01:30:41.516Z,101070.13
2022-12-17T01:33:28.615Z,101066.34
2022-12-17T01:36:14.471Z,101074.31
2022-12-17T01:39:05.040Z,101075.03
2022-12-17T01:41:50.209Z,101085.59
2022-12-17T01:45:06.339Z,101087.97
2022-12-17T01:47:59.316Z,101099.47
2022-12-17T01:50:49.155Z,101088.53
2022-12-17T01:53:37.110Z,101099.75
2022-12-17T01:56:26.245Z,101097.69
2022-12-17T01:59:12.446Z,101100.34
2022-12-17T02:01:58.868Z,101072.72
2022-12-17T02:04:44.724Z,101104.47
2022-12-17T02:07:47.939Z,101065.88
2022-12-17T02:10:42.398Z,101105.50
2022-12-17T02:13:38.218Z,101113.88
2022-12-17T02:16:32.531Z,101110.53
2022-12-17T02:19:38.447Z,101118.06
2022-12-17T02:22:30.207Z,101114.47
2022-12-17T02:25:28.113Z,101105.38
2022-12-17T02:28:15.311Z,101117.72
2022-12-17T02:31:00.829Z,101105.13
2022-12-17T02:33:46.706Z,101121.72
2022-12-17T02:36:32.360Z,101104.78
2022-12-17T02:39:17.554Z,101119.03
2022-12-17T02:42:08.154Z,101121.56
2022-12-17T02:44:56.909Z,101129.63
2022-12-17T02:47:44.585Z,101141.63
2022-12-17T02:50:30.970Z,101140.09
2022-12-17T02:53:18.826Z,101143.69
2022-12-17T02:56:04.570Z,101149.03
2022-12-17T02:58:49.928Z,101138.44
2022-12-17T03:01:37.079Z,101117.84
2022-12-17T03:04:28.691Z,101144.78
2022-12-17T03:07:14.210Z,101140.78
2022-12-17T03:09:59.717Z,101141.56
2022-12-17T03:12:46.926Z,101155.06
2022-12-17T03:15:32.943Z,101151.84
2022-12-17T03:18:34.144Z,101152.69
2022-12-17T03:21:19.751Z,101157.22
2022-12-17T03:24:13.781Z,101167.59
2022-12-17T03:26:59.217Z,101170.41
2022-12-17T03:29:44.737Z,101172.72
2022-12-17T03:32:30.076Z,101169.13
2022-12-17T03:35:16.667Z,101169.72
2022-12-17T03:38:02.159Z,101166.91
2022-12-17T03:40:49.751Z,101181.22
2022-12-17T03:43:35.588Z,101181.00
2022-12-17T03:46:21.121Z,101183.50
2022-12-17T03:49:06.294Z,101187.75
2022-12-17T03:51:55.084Z,101187.34
2022-12-17T03:54:52.243Z,101181.44
2022-12-17T03:57:37.865Z,101151.34
2022-12-17T04:00:24.288Z,101174.16
2022-12-17T04:03:09.802Z,101150.72
2022-12-17T04:05:55.081Z,101188.91
2022-12-17T04:08:41.866Z,101179.06
2022-12-17T04:11:27.340Z,101179.91
2022-12-17T04:14:13.086Z,101186.97
2022-12-17T04:16:58.445Z,101180.41
2022-12-17T04:19:43.672Z,101197.09
2022-12-17T04:22:29.670Z,101182.81
2022-12-17T04:25:16.540Z,101199.75
2022-12-17T04:28:01.845Z,101201.91
2022-12-17T04:30:47.331Z,101210.19
2022-12-17T04:33:32.796Z,101212.63
2022-12-17T04:36:18.553Z,101212.56
2022-12-17T04:39:04.424Z,101211.25
2022-12-17T04:41:51.356Z,101216.53
2022-12-17T04:44:36.773Z,101217.56
2022-12-17T04:47:22.149Z,101223.56
2022-12-17T04:50:07.348Z,101226.19
2022-12-17T04:52:52.776Z,101233.25
2022-12-17T04:55:38.294Z,101233.31
2022-12-17T04:58:26.021Z,101218.91
2022-12-17T05:01:12.076Z,101237.13
2022-12-17T05:03:58.065Z,101235.78
2022-12-17T05:06:44.359Z,101247.66
2022-12-17T05:09:29.697Z,101249.13
2022-12-17T05:12:15.128Z,101237.25
2022-12-17T05:15:01.752Z,101246.81
2022-12-17T05:17:46.984Z,101241.09
2022-12-17T05:20:32.219Z,101238.31
2022-12-17T05:23:23.503Z,101249.38
2022-12-17T05:26:21.352Z,101249.69
2022-12-17T05:29:08.032Z,101242.16
2022-12-17T05:31:56.850Z,101250.97
2022-12-17T05:34:42.251Z,101238.72
2022-12-17T05:37:27.926Z,101254.03
2022-12-17T05:40:13.231Z,101275.94
2022-12-17T05:42:58.730Z,101272.44
2022-12-17T05:45:44.181Z,101269.88
2022-12-17T05:48:32.965Z,101277.63
2022-12-17T05:51:18.287Z,101267.16
2022-12-17T05:54:03.926Z,101269.66
2022-12-17T05:56:49.112Z,101282.75
2022-12-17T05:59:39.565Z,101282.06
2022-12-17T06:02:25.136Z,101278.34
2022-12-17T06:05:11.595Z,101273.22
2022-12-17T06:07:56.871Z,101294.06
2022-12-17T06:10:42.085Z,101294.56
2022-12-17T06:13:27.564Z,101288.84
2022-12-17T06:16:13.482Z,101309.88
2022-12-17T06:18:59.304Z,101304.19
2022-12-17T06:21:46.073Z,101302.72
2022-12-17T06:24:31.651Z,101311.88
2022-12-17T06:27:17.247Z,101323.41
2022-12-17T06:30:02.582Z,101316.94
2022-12-17T06:32:47.969Z,101326.44
2022-12-17T06:35:33.405Z,101329.97
2022-12-17T06:38:17.974Z,101301.38
2022-12-17T06:41:03.416Z,101328.75
2022-12-17T06:43:48.983Z,101336.50
2022-12-17T06:46:34.348Z,101334.97
2022-12-17T06:49:19.840Z,101327.13
2022-12-17T06:52:05.129Z,101332.03
2022-12-17T06:54:51.916Z,101325.94
2022-12-17T06:57:41.160Z,101343.94
2022-12-17T07:00:29.650Z,101342.56
2022-12-17T07:03:15.181Z,101344.63
2022-12-17T07:06:01.093Z,101345.50
2022-12-17T07:08:47.107Z,101359.50
2022-12-17T07:11:33.769Z,101362.16
2022-12-17T07:14:19.282Z,101374.78
2022-12-17T07:17:04.618Z,101366.97
2022-12-17T07:19:49.924Z,101378.03
2022-12-17T07:22:35.646Z,101389.69
2022-12-17T07:25:21.029Z,101352.00
2022-12-17T07:28:12.846Z,101392.75
2022-12-17T07:30:58.300Z,101373.94
2022-12-17T07:33:43.535Z,101412.25
2022-12-17T07:36:28.720Z,101403.84
2022-12-17T07:39:14.016Z,101417.47
2022-12-17T07:41:59.306Z,101405.94
2022-12-17T07:44:46.014Z,101425.59
2022-12-17T07:47:31.385Z,101385.38
2022-12-17T07:50:16.734Z,101423.56
2022-12-17T07:53:10.461Z,101430.13
2022-12-17T07:55:55.739Z,101445.50
2022-12-17T07:58:41.097Z,101435.88
2022-12-17T08:01:27.714Z,101441.09
2022-12-17T08:04:24.620Z,101437.97
2022-12-17T08:07:13.910Z,101456.03
2022-12-17T08:09:59.520Z,101460.69
2022-12-17T08:12:44.764Z,101468.84
2022-12-17T08:15:30.032Z,101459.06
2022-12-17T08:18:26.172Z,101470.66
2022-12-17T08:21:12.520Z,101476.50
2022-12-17T08:23:57.909Z,101479.59
2022-12-17T08:26:47.777Z,101468.34
2022-12-17T08:29:33.861Z,101481.00
2022-12-17T08:32:19.028Z,101485.50
2022-12-17T08:35:05.518Z,101492.84
2022-12-17T08:37:50.778Z,101493.44
2022-12-17T08:40:36.225Z,101505.44
2022-12-17T08:43:21.592Z,101499.13
2022-12-17T08:46:07.820Z,101482.94
2022-12-17T08:48:54.248Z,101496.34
2022-12-17T08:51:41.802Z,101504.84
2022-12-17T08:54:33.004Z,101509.81
2022-12-17T08:57:30.746Z,101503.44
2022-12-17T09:00:17.127Z,101500.53
2022-12-17T09:03:02.601Z,101492.28
2022-12-17T09:05:48.331Z,101513.72
2022-12-17T09:08:34.917Z,101517.19
2022-12-17T09:11:20.069Z,101520.88
2022-12-17T09:14:05.437Z,101514.28
2022-12-17T09:16:51.155Z,101518.16
2022-12-17T09:19:36.562Z,101529.03
2022-12-17T09:22:24.088Z,101516.91
2022-12-17T09:25:10.954Z,101524.22
2022-12-17T09:27:56.416Z,101517.88
2022-12-17T09:30:41.775Z,101522.97
2022-12-17T09:33:32.876Z,101531.50
2022-12-17T09:36:23.754Z,101528.88
2022-12-17T09:39:05.694Z,101531.69
2022-12-17T09:42:01.591Z,101531.78
2022-12-17T09:44:57.263Z,101522.06
2022-12-17T09:47:55.409Z,101540.13
2022-12-17T09:50:41.132Z,101544.09
2022-12-17T09:53:37.748Z,101541.94
2022-12-17T09:56:25.425Z,101522.81
2022-12-17T09:59:12.346Z,101545.31
2022-12-17T10:01:59.510Z,101553.34
2022-12-17T10:04:52.635Z,101554.13
2022-12-17T10:07:41.105Z,101547.09
2022-12-17T10:10:36.905Z,101548.47
2022-12-17T10:13:29.304Z,101546.56
2022-12-17T10:16:15.913Z,101546.00
2022-12-17T10:19:02.334Z,101551.66
2022-12-17T10:21:48.657Z,101552.16
2022-12-17T10:24:33.763Z,101556.88
2022-12-17T10:27:28.217Z,101556.59
2022-12-17T10:30:28.107Z,101548.72
2022-12-17T10:33:15.952Z,101552.19
2022-12-17T10:36:01.674Z,101555.88
2022-12-17T10:38:48.972Z,101554.47
2022-12-17T10:41:42.997Z,101556.72
2022-12-17T10:44:40.042Z,101553.34
2022-12-17T10:47:30.957Z,101556.03
2022-12-17T10:50:20.388Z,101555.69
2022-12-17T10:53:07.467Z,101540.09
2022-12-17T10:55:54.621Z,101564.50
2022-12-17T10:58:41.924Z,101562.03
2022-12-17T11:01:31.187Z,101557.16
2022-12-17T11:04:28.612Z,101559.56
2022-12-17T11:07:16.241Z,101558.72
2022-12-17T11:10:09.512Z,101573.53
2022-12-17T11:12:59.668Z,101568.56
2022-12-17T11:15:51.440Z,101560.78
2022-12-17T11:18:40.841Z,101566.91
2022-12-17T11:21:31.503Z,101569.94
2022-12-17T11:24:22.741Z,101571.91
2022-12-17T11:27:12.520Z,101568.19
2022-12-17T11:29:57.904Z,101564.06
2022-12-17T11:32:59.663Z,101563.00
2022-12-17T11:35:46.930Z,101572.41
2022-12-17T11:38:48.870Z,101564.13
2022-12-17T11:41:44.143Z,101573.19
2022-12-17T11:44:43.140Z,101568.31
2022-12-17T11:47:38.892Z,101577.56
2022-12-17T11:50:34.801Z,101575.88
2022-12-17T11:53:28.136Z,101576.69
2022-12-17T11:56:22.430Z,101574.38
2022-12-17T11:59:13.756Z,101577.19
2022-12-17T12:02:08.452Z,101580.28
2022-12-17T12:05:10.313Z,101583.13
2022-12-17T12:08:04.409Z,101575.16
2022-12-17T12:10:56.878Z,101575.91
2022-12-17T12:13:51.095Z,101583.28
2022-12-17T12:16:44.864Z,101572.00
2022-12-17T12:19:40.952Z,101574.88
2022-12-17T12:22:35.250Z,101569.16
2022-12-17T12:25:37.549Z,101572.22
2022-12-17T12:28:32.318Z,101590.41
2022-12-17T12:31:27.808Z,101583.81
2022-12-17T12:34:18.814Z,101590.88
2022-12-17T12:37:06.579Z,101580.47
2022-12-17T12:39:56.923Z,101569.84
2022-12-17T12:42:52.109Z,101582.75
2022-12-17T12:45:59.268Z,101576.72
2022-12-17T12:48:57.808Z,101568.06
2022-12-17T12:51:47.998Z,101576.22
2022-12-17T12:54:44.232Z,101571.75
2022-12-17T12:57:51.153Z,101580.53
2022-12-17T13:00:42.693Z,101588.28
2022-12-17T13:03:51.728Z,101583.41
2022-12-17T13:06:46.345Z,101583.03
2022-12-17T13:09:47.700Z,101581.63
2022-12-17T13:12:24.258Z,101569.94
2022-12-17T13:15:05.148Z,101578.25
2022-12-17T13:17:37.623Z,101569.53
2022-12-17T13:20:26.263Z,101566.53
2022-12-17T13:23:26.698Z,101557.03
2022-12-17T13:26:14.745Z,101554.84
2022-12-17T13:28:44.224Z,101532.19
2022-12-17T13:31:19.000Z,101558.81
2022-12-17T13:33:53.649Z,101554.91
2022-12-17T13:36:29.065Z,101567.91
2022-12-17T13:39:04.710Z,101572.13
2022-12-17T13:41:34.934Z,101561.44
2022-12-17T13:44:05.757Z,101571.56
2022-12-17T13:46:47.250Z,101560.19
2022-12-17T13:49:20.092Z,101579.72
2022-12-17T13:51:48.072Z,101580.56
2022-12-17T13:54:19.330Z,101565.81
2022-12-17T13:56:47.609Z,101563.72
2022-12-17T13:59:21.097Z,101585.41
2022-12-17T14:01:51.181Z,101558.59
2022-12-17T14:04:24.754Z,101580.63
2022-12-17T14:06:53.933Z,101577.28
2022-12-17T14:09:28.269Z,101585.00
2022-12-17T14:12:18.850Z,101565.81
2022-12-17T14:14:49.114Z,101577.06
2022-12-17T14:17:20.118Z,101570.44
2022-12-17T14:19:49.803Z,101571.41
2022-12-17T14:22:21.868Z,101575.78
2022-12-17T14:24:51.423Z,101581.69
2022-12-17T14:27:24.719Z,101575.50
2022-12-17T14:29:52.918Z,101573.00
2022-12-17T14:32:26.331Z,101588.41
2022-12-17T14:35:00.609Z,101591.44
2022-12-17T14:37:30.134Z,101595.78
2022-12-17T14:40:04.990Z,101585.59
2022-12-17T14:42:37.612Z,101600.84
2022-12-17T14:45:09.056Z,101595.03
2022-12-17T14:47:45.724Z,101602.72
2022-12-17T14:50:30.708Z,101601.22
2022-12-17T14:53:00.261Z,101599.75
2022-12-17T14:55:36.707Z,101596.63
2022-12-17T14:58:18.372Z,101603.66
2022-12-17T15:00:49.489Z,101592.00
2022-12-17T15:03:29.195Z,101604.59
2022-12-17T15:06:02.416Z,101605.06
2022-12-17T15:08:36.352Z,101611.91
2022-12-17T15:11:06.239Z,101619.56
2022-12-17T15:13:34.393Z,101618.88
2022-12-17T15:16:02.357Z,101608.97
2022-12-17T15:18:30.230Z,101617.03
2022-12-17T15:20:58.150Z,101612.06
2022-12-17T15:23:26.449Z,101622.47
2022-12-17T15:25:55.325Z,101597.28
2022-12-17T15:28:24.667Z,101611.59
2022-12-17T15:30:52.651Z,101627.06
2022-12-17T15:33:20.461Z,101637.44
2022-12-17T15:35:49.061Z,101636.31
2022-12-17T15:38:18.014Z,101633.16
2022-12-17T15:40:45.924Z,101624.34
2022-12-17T15:43:13.358Z,101639.81
2022-12-17T15:45:45.944Z,101630.00
2022-12-17T15:48:18.967Z,101645.53
2022-12-17T15:50:47.285Z,101640.06
2022-12-17T15:53:16.028Z,101637.91
2022-12-17T15:55:44.998Z,101633.28
2022-12-17T15:58:13.918Z,101647.31
2022-12-17T16:00:43.096Z,101646.22
2022-12-17T16:03:11.133Z,101647.16
2022-12-17T16:05:39.070Z,101651.56
2022-12-17T16:08:07.713Z,101639.03
2022-12-17T16:10:35.448Z,101649.03
2022-12-17T16:13:03.471Z,101648.00
2022-12-17T16:15:31.517Z,101658.53
2022-12-17T16:18:00.982Z,101655.13
2022-12-17T16:20:28.810Z,101658.16
2022-12-17T16:22:56.716Z,101640.09
2022-12-17T16:25:24.618Z,101670.63
2022-12-17T16:27:52.445Z,101666.88
2022-12-17T16:30:20.912Z,101663.91
2022-12-17T16:32:48.801Z,101662.34
2022-12-17T16:35:18.092Z,101663.41
2022-12-17T16:37:46.133Z,101664.72
2022-12-17T16:40:14.161Z,101668.63
2022-12-17T16:42:42.012Z,101671.00
2022-12-17T16:45:10.981Z,101653.34
2022-12-17T16:47:39.627Z,101675.47
2022-12-17T16:50:07.664Z,101677.28
2022-12-17T16:52:36.821Z,101673.78
2022-12-17T16:55:04.997Z,101677.25
2022-12-17T16:57:32.885Z,101678.97
2022-12-17T17:00:00.856Z,101673.63
2022-12-17T17:02:28.865Z,101695.34
2022-12-17T17:04:56.957Z,101671.38
2022-12-17T17:07:26.725Z,101675.25
2022-12-17T17:09:56.142Z,101685.63
2022-12-17T17:12:25.346Z,101692.47
2022-12-17T17:14:53.235Z,101689.66
2022-12-17T17:17:54.356Z,101698.50
2022-12-17T17:20:12.047Z,101691.22
2022-12-17T17:22:39.956Z,101700.22
2022-12-17T17:25:09.789Z,101707.72
2022-12-17T17:27:37.652Z,101705.22
2022-12-17T17:30:06.479Z,101702.53
2022-12-17T17:32:34.367Z,101657.09
2022-12-17T17:35:02.342Z,101708.75
2022-12-17T17:37:31.360Z,101713.31
2022-12-17T17:39:59.222Z,101724.94
2022-12-17T17:42:28.428Z,101708.50
2022-12-17T17:44:56.282Z,101707.19
2022-12-17T17:47:24.193Z,101693.41
2022-12-17T17:49:52.055Z,101717.16
2022-12-17T17:52:19.845Z,101722.53
2022-12-17T17:54:48.702Z,101708.78
2022-12-17T17:57:16.707Z,101695.03
2022-12-17T17:59:45.996Z,101711.34
2022-12-17T18:02:14.035Z,101719.09
2022-12-17T18:04:47.360Z,101713.22
2022-12-17T18:07:26.473Z,101717.22
2022-12-17T18:09:55.508Z,101717.38
2022-12-17T18:12:42.667Z,101718.00
2022-12-17T18:15:15.407Z,101719.72
2022-12-17T18:17:45.974Z,101731.31
2022-12-17T18:20:14.684Z,101729.31
2022-12-17T18:22:42.616Z,101720.94
2022-12-17T18:25:12.258Z,101738.59
2022-12-17T18:27:49.898Z,101730.78
2022-12-17T18:30:19.840Z,101722.78
2022-12-17T18:32:50.508Z,101743.88
2022-12-17T18:35:18.597Z,101737.91
2022-12-17T18:37:46.834Z,101740.19
2022-12-17T18:40:14.787Z,101743.94
2022-12-17T18:43:00.166Z,101751.16
2022-12-17T18:45:29.371Z,101742.94
2022-12-17T18:47:57.277Z,101739.31
2022-12-17T18:50:25.305Z,101706.06
2022-12-17T18:52:53.836Z,101753.34
2022-12-17T18:55:21.793Z,101760.03
2022-12-17T18:57:49.733Z,101743.56
2022-12-17T19:00:18.610Z,101746.56
2022-12-17T19:02:48.505Z,101735.75
2022-12-17T19:05:17.230Z,101763.25
2022-12-17T19:07:45.136Z,101748.00
2022-12-17T19:10:13.055Z,101756.91
2022-12-17T19:12:40.877Z,101760.06
2022-12-17T19:15:10.144Z,101754.06
2022-12-17T19:17:38.847Z,101759.31
2022-12-17T19:20:09.984Z,101755.66
2022-12-17T19:22:37.857Z,101746.88
2022-12-17T19:25:06.390Z,101732.09
2022-12-17T19:27:37.115Z,101736.94
2022-12-17T19:30:06.103Z,101723.97
2022-12-17T19:32:34.068Z,101764.69
2022-12-17T19:35:02.115Z,101759.56
2022-12-17T19:37:31.344Z,101773.63
2022-12-17T19:39:59.420Z,101774.66
2022-12-17T19:42:33.426Z,101771.69
2022-12-17T19:45:03.540Z,101769.38
2022-12-17T19:47:31.455Z,101735.09
2022-12-17T19:49:59.263Z,101777.38
2022-12-17T19:52:27.089Z,101776.38
2022-12-17T19:54:56.295Z,101769.75
2022-12-17T19:57:24.208Z,101758.94
2022-12-17T19:59:52.201Z,101766.94
2022-12-17T20:02:24.936Z,101770.03
2022-12-17T20:04:59.321Z,101773.47
2022-12-17T20:07:27.495Z,101749.16
2022-12-17T20:09:57.064Z,101743.44
2022-12-17T20:12:25.117Z,101762.38
2022-12-17T20:14:53.129Z,101780.00
2022-12-17T20:17:21.281Z,101771.69
2022-12-17T20:19:49.326Z,101768.94
2022-12-17T20:22:17.233Z,101748.03
2022-12-17T20:24:45.135Z,101778.22
2022-12-17T20:27:14.288Z,101781.19
2022-12-17T20:30:02.689Z,101741.38
2022-12-17T20:32:30.693Z,101797.06
2022-12-17T20:34:58.780Z,101798.63
2022-12-17T20:37:26.753Z,101798.13
2022-12-17T20:39:55.157Z,101797.97
2022-12-17T20:42:24.335Z,101808.88
2022-12-17T20:44:53.645Z,101804.00
2022-12-17T20:47:21.752Z,101804.13
2022-12-17T20:49:49.656Z,101821.47
2022-12-17T20:52:17.644Z,101820.75
2022-12-17T20:54:45.522Z,101817.13
2022-12-17T20:57:13.389Z,101819.38
2022-12-17T20:59:42.772Z,101820.19
2022-12-17T21:02:11.546Z,101817.16
2022-12-17T21:04:39.592Z,101811.59
2022-12-17T21:07:07.426Z,101796.88
2022-12-17T21:09:35.246Z,101794.41
2022-12-17T21:12:03.145Z,101811.94
2022-12-17T21:14:35.559Z,101814.75
2022-12-17T21:17:05.534Z,101812.69
2022-12-17T21:19:33.536Z,101812.56
2022-12-17T21:22:01.928Z,101809.31
2022-12-17T21:24:29.817Z,101807.63
2022-12-17T21:26:57.952Z,101794.06
2022-12-17T21:29:26.133Z,101817.31
2022-12-17T21:31:54.035Z,101815.13
2022-12-17T21:34:25.229Z,101824.16
2022-12-17T21:36:53.269Z,101815.28
2022-12-17T21:39:21.966Z,101828.75
2022-12-17T21:42:03.880Z,101828.44
2022-12-17T21:44:32.075Z,101829.56
2022-12-17T21:46:59.988Z,101833.72
2022-12-17T21:49:29.246Z,101827.88
2022-12-17T21:51:59.176Z,101841.31
2022-12-17T21:54:27.319Z,101834.38
2022-12-17T21:56:55.160Z,101846.88
2022-12-17T21:59:23.351Z,101845.25
2022-12-17T22:01:52.103Z,101864.72
2022-12-17T22:04:20.162Z,101865.09
2022-12-17T22:06:55.731Z,101841.00
2022-12-17T22:09:45.560Z,101843.31
2022-12-17T22:12:34.000Z,101854.88
2022-12-17T22:15:01.965Z,101853.25
2022-12-17T22:17:30.270Z,101842.06
2022-12-17T22:19:58.048Z,101807.75
2022-12-17T22:22:27.241Z,101841.44
2022-12-17T22:24:55.308Z,101830.41
2022-12-17T22:27:23.984Z,101844.25
2022-12-17T22:30:09.399Z,101844.75
2022-12-17T22:32:54.754Z,101838.19
2022-12-17T22:36:10.198Z,101842.53
2022-12-17T22:42:50.407Z,101826.31
2022-12-17T22:44:34.012Z,101845.25
2022-12-17T22:44:44.522Z,101845.25
2022-12-17T22:46:41.602Z,101850.88
2022-12-17T22:49:10.041Z,101841.53
2022-12-17T22:51:38.571Z,101849.09
2022-12-17T22:54:13.657Z,101837.94
2022-12-17T22:57:27.997Z,101839.81
2022-12-17T22:59:32.185Z,101849.59
2022-12-17T23:02:00.248Z,101849.81
2022-12-17T23:04:28.147Z,101830.19
2022-12-17T23:06:58.166Z,101838.03
2022-12-17T23:09:27.865Z,101829.88
2022-12-17T23:11:55.739Z,101839.38
2022-12-17T23:14:23.894Z,101828.78
2022-12-17T23:16:51.681Z,101841.75
2022-12-17T23:19:19.553Z,101833.81
2022-12-17T23:21:47.362Z,101836.97
2022-12-17T23:24:15.128Z,101820.56
2022-12-17T23:26:44.322Z,101828.53
2022-12-17T23:29:19.401Z,101837.25
2022-12-17T23:31:48.191Z,101836.78
2022-12-17T23:34:16.363Z,101837.13
2022-12-17T23:36:44.187Z,101812.94
2022-12-17T23:39:12.123Z,101826.09
2022-12-17T23:41:39.941Z,101832.34
2022-12-17T23:44:09.037Z,101844.06
2022-12-17T23:46:36.857Z,101844.91
2022-12-17T23:49:05.984Z,101844.34
2022-12-17T23:51:34.575Z,101837.69
2022-12-17T23:54:02.496Z,101837.22
2022-12-17T23:56:30.480Z,101849.19
2022-12-17T23:59:00.363Z,101858.25
